Flight Track Log - Related Links

Times and Time Zones

All times are in EST time to prevent confusion due to time zone crossing. See the N325WR flight status page for this flight to view local times or setup timezone preferences in your user account.

Time Position Orientation Groundspeed Altitude Reporting Facility
EST Latitude Longitude Course Direction KTS MPH feet Rate Location/Type
Thu 12:43:51 PM 30.2719 -90.8011 60° Northeast 162 186 8,700  Level Houston Center
Thu 12:44:07 PM 30.2814 -90.7783 64° Northeast 175 201 9,300 1,619 Climbing Houston Center
Thu 12:44:54 PM 30.3031 -90.7383 58° Northeast 181 208 10,400 1,431 Climbing Houston Center
Thu 12:45:56 PM 30.3319 -90.6844 58° Northeast 194 223 11,900 1,355 Climbing Houston Center
Thu 12:46:58 PM 30.3506 -90.6231 71° East 205 236 13,200 1,258 Climbing Houston Center
Thu 12:48:00 PM 30.3711 -90.5592 70° East 212 244 14,500 1,258 Climbing Houston Center
Thu 12:49:00 PM 30.3384 -90.5430 60° Northeast  Level Estimated
Thu 12:49:02 PM 30.3961 -90.4953 66° East 215 247 15,800  Level Houston Center
Thu 12:50:04 PM 30.4228 -90.4317 64° Northeast 219 252 17,000 1,016 Climbing Houston Center
Thu 12:51:06 PM 30.4542 -90.3525 65° Northeast 224 258 17,900 919 Climbing Houston Center
Thu 12:52:08 PM 30.4794 -90.2856 66° East 227 261 18,900 919 Climbing Houston Center
Thu 12:53:10 PM 30.5069 -90.2189 64° Northeast 229 264 19,800 816 Climbing Houston Center
Thu 12:54:13 PM 30.5344 -90.1506 65° Northeast 233 268 20,600 576 Climbing Houston Center
Thu 12:55:15 PM 30.5642 -90.0808 64° Northeast 241 277 21,000 194 Climbing Houston Center
Thu 12:56:17 PM 30.5964 -90.0019 65° Northeast 266 306 21,000  Level Houston Center
Thu 12:57:19 PM 30.6378 -89.9008 65° Northeast 284 327 21,000  Level Houston Center
Thu 12:58:22 PM 30.6731 -89.8161 64° Northeast 289 333 21,000  Level Houston Center
Thu 12:59:24 PM 30.7067 -89.7308 65° Northeast 290 334 21,000  Level Houston Center
Thu 01:00:26 PM 30.7408 -89.6444 65° Northeast 291 335 21,000  Level Houston Center
Thu 01:01:28 PM 30.7758 -89.5592 64° Northeast 291 335 21,000  Level Houston Center
Thu 01:02:30 PM 30.8092 -89.4744 65° Northeast 290 334 21,000  Level Houston Center
Thu 01:03:32 PM 30.8431 -89.3892 65° Northeast 290 334 21,000  Level Houston Center
Thu 01:04:34 PM 30.8836 -89.2869 65° Northeast 289 333 21,000  Level Houston Center
Thu 01:05:37 PM 30.9178 -89.2017 65° Northeast 290 334 21,000  Level Houston Center
Thu 01:06:38 PM 30.9519 -89.1153 65° Northeast 293 337 21,000  Level Houston Center
Thu 01:07:40 PM 30.9850 -89.0297 66° East 290 334 21,000  Level Houston Center
Thu 01:08:43 PM 31.0192 -88.9433 65° Northeast 292 336 21,000  Level Houston Center
Thu 01:09:45 PM 31.0561 -88.8461 66° East 293 337 21,000  Level Houston Center
Thu 01:10:47 PM 31.0906 -88.7603 65° Northeast 293 337 21,000  Level Houston Center
Thu 01:11:49 PM 31.1250 -88.6733 65° Northeast 293 337 21,000  Level Houston Center
Thu 01:12:51 PM 31.1586 -88.5864 66° East 293 337 21,000  Level Houston Center
Thu 01:13:53 PM 31.1994 -88.4828 65° Northeast 292 336 21,000  Level Houston Center
Thu 01:14:55 PM 31.2331 -88.3942 66° East 294 338 21,000  Level Houston Center
Thu 01:15:58 PM 31.2669 -88.3056 66° East 296 341 21,000  Level Houston Center
Thu 01:17:00 PM 31.3017 -88.2175 65° Northeast 296 341 21,000  Level Houston Center
Thu 01:18:02 PM 31.3358 -88.1289 66° East 295 339 21,000  Level Houston Center
Thu 01:19:04 PM 31.3692 -88.0406 66° East 295 339 21,000  Level Houston Center
Thu 01:20:06 PM 31.4022 -87.9519 66° East 295 339 21,000  Level Houston Center
Thu 01:21:09 PM 31.4425 -87.8467 66° East 295 339 21,000  Level Houston Center
Thu 01:22:11 PM 31.4747 -87.7583 67° East 294 338 21,000  Level Houston Center
Thu 01:23:13 PM 31.5081 -87.6714 66° East 293 337 21,000  Level Houston Center
Thu 01:24:15 PM 31.5422 -87.5847 65° Northeast 293 337 21,000  Level Houston Center
Thu 01:25:17 PM 31.5742 -87.4978 67° East 291 335 21,000  Level Houston Center
Thu 01:26:19 PM 31.6075 -87.4122 65° Northeast 289 333 21,000  Level Houston Center
Thu 01:27:22 PM 31.6461 -87.3083 66° East 290 334 21,000  Level Houston Center
Thu 01:28:24 PM 31.6772 -87.2211 67° East 289 333 21,000  Level Houston Center
Thu 01:29:26 PM 31.7097 -87.1336 66° East 291 335 21,000  Level Houston Center
Thu 01:30:29 PM 31.7439 -87.0475 65° Northeast 291 335 21,000  Level Houston Center
Thu 01:31:31 PM 31.7756 -86.9594 67° East 292 336 21,000  Level Houston Center
Thu 01:32:42 PM 31.8211 -86.8447 65° Northeast 289 333 21,000  Level Atlanta Center
Thu 01:33:41 PM 31.8503 -86.7575 68° East 289 333 21,000  Level Atlanta Center
Thu 01:34:41 PM 31.8836 -86.6706 66° East 289 333 21,000  Level Atlanta Center
Thu 01:35:42 PM 31.9144 -86.5858 67° East 289 333 21,000  Level Atlanta Center
Thu 01:36:42 PM 31.9456 -86.4986 67° East 289 333 21,000  Level Atlanta Center
Thu 01:37:42 PM 31.9803 -86.4211 62° Northeast 294 338 21,000  Level Atlanta Center
Thu 01:38:42 PM 32.0094 -86.3242 70° East 294 338 21,000  Level Atlanta Center
Thu 01:39:42 PM 32.0422 -86.2342 67° East 289 333 21,000  Level Atlanta Center
Thu 01:40:42 PM 32.0708 -86.1467 69° East 289 333 21,000  Level Atlanta Center
Thu 01:41:41 PM 32.1036 -86.0667 64° Northeast 294 338 21,000  Level Atlanta Center
Thu 01:42:41 PM 32.1342 -85.9764 68° East 289 333 21,000  Level Atlanta Center
Thu 01:43:42 PM 32.1669 -85.8864 67° East 289 333 21,000  Level Atlanta Center
Thu 01:44:41 PM 32.1975 -85.8011 67° East 289 333 21,000  Level Atlanta Center
Thu 01:45:41 PM 32.2300 -85.7133 66° East 289 333 21,000  Level Atlanta Center
Thu 01:46:42 PM 32.2603 -85.6256 68° East 289 333 21,000  Level Atlanta Center
Thu 01:47:41 PM 32.2928 -85.5378 66° East 289 333 21,000  Level Atlanta Center
Thu 01:48:41 PM 32.3231 -85.4497 68° East 289 333 21,000  Level Atlanta Center
Thu 01:49:41 PM 32.3553 -85.3642 66° East 289 333 21,000  Level Atlanta Center
Thu 01:50:41 PM 32.3853 -85.2761 68° East 289 333 21,000  Level Atlanta Center
Thu 01:51:41 PM 32.4072 -85.1853 74° East 289 333 21,000  Level Atlanta Center
Thu 01:52:41 PM 32.4456 -85.0972 63° Northeast 289 333 21,000  Level Atlanta Center
Thu 01:53:41 PM 32.4775 -85.0089 67° East 289 333 21,000  Level Atlanta Center
Thu 01:54:41 PM 32.5075 -84.9206 68° East 289 333 21,000  Level Atlanta Center
Thu 01:55:41 PM 32.5414 -84.8347 65° Northeast 289 333 21,000  Level Atlanta Center
Thu 01:56:41 PM 32.5711 -84.7561 66° East 267 307 21,000  Level Atlanta Center
Thu 01:57:41 PM 32.6008 -84.6675 68° East 274 315 21,000  Level Atlanta Center
Thu 01:58:42 PM 32.6325 -84.5864 65° Northeast 274 315 21,000  Level Atlanta Center
Thu 01:59:41 PM 32.6619 -84.4953 69° East 280 322 21,000  Level Atlanta Center
Thu 02:00:41 PM 32.6917 -84.4139 67° East 273 314 21,000  Level Atlanta Center
Thu 02:01:42 PM 32.7189 -84.3253 70° East 273 314 21,000  Level Atlanta Center
Thu 02:02:41 PM 32.7506 -84.2339 68° East 273 314 21,000  Level Atlanta Center
Thu 02:03:41 PM 32.7797 -84.1475 68° East 273 314 21,000  Level Atlanta Center
Thu 02:04:41 PM 32.8069 -84.0636 69° East 268 308 21,000  Level Atlanta Center
Thu 02:05:41 PM 32.8361 -83.9769 68° East 274 315 21,000  Level Atlanta Center
Thu 02:06:41 PM 32.8633 -83.8931 69° East 274 315 21,000  Level Atlanta Center
Thu 02:07:41 PM 32.8903 -83.8136 68° East 281 323 21,000  Level Atlanta Center
Thu 02:08:41 PM 32.9214 -83.7269 67° East 281 323 21,000  Level Atlanta Center
Thu 02:09:41 PM 32.9483 -83.6453 69° East 275 316 21,000 50 Level Atlanta Center
Thu 02:10:42 PM 32.9772 -83.5583 68° East 275 316 21,100  Climbing Atlanta Center
Thu 02:11:41 PM 33.0061 -83.4767 67° East 270 311 21,000 -50 Descending Atlanta Center
Thu 02:12:41 PM 33.0347 -83.3919 68° East 270 311 21,000  Level Atlanta Center
Thu 02:13:42 PM 33.0594 -83.3150 69° East 270 311 21,000  Level Atlanta Center
Thu 02:14:42 PM 33.0861 -83.2256 70° East 275 316 21,000  Level Atlanta Center
Thu 02:15:41 PM 33.1125 -83.1436 69° East 269 310 21,000  Level Atlanta Center
Thu 02:16:41 PM 33.1411 -83.0589 68° East 268 308 21,000  Level Atlanta Center
Thu 02:17:41 PM 33.1678 -82.9792 68° East 263 303 21,000  Level Atlanta Center
Thu 02:18:41 PM 33.1981 -82.8844 69° East 268 308 21,000  Level Atlanta Center
Thu 02:19:41 PM 33.2244 -82.8022 69° East 268 308 21,000  Level Atlanta Center
Thu 02:20:41 PM 33.2528 -82.7197 68° East 268 308 21,000  Level Atlanta Center
Thu 02:21:42 PM 33.2789 -82.6350 70° East 268 308 21,000  Level Atlanta Center
Thu 02:22:41 PM 33.3053 -82.5500 70° East 268 308 21,000  Level Atlanta Center
Thu 02:23:42 PM 33.3292 -82.4725 70° East 268 308 21,000  Level Atlanta Center
Thu 02:24:41 PM 33.3553 -82.3900 69° East 268 308 21,000  Level Atlanta Center
Thu 02:27:10 PM 33.4317 -82.1808 66° East 272 313 21,000  Level Jacksonville Center
Thu 02:28:10 PM 33.4583 -82.0983 69° East 266 306 21,000  Level Jacksonville Center
Thu 02:29:10 PM 33.4828 -82.0161 70° East 266 306 21,000 -150 Level Jacksonville Center
Thu 02:30:10 PM 33.5092 -81.9286 70° East 266 306 20,700 -500 Descending Jacksonville Center
Thu 02:31:10 PM 33.5400 -81.8408 67° East 276 318 20,000 -800 Descending Jacksonville Center
Thu 02:32:10 PM 33.5661 -81.7508 71° East 281 323 19,100 -950 Descending Jacksonville Center
Thu 02:33:10 PM 33.5925 -81.6583 71° East 287 330 18,100 -650 Descending Jacksonville Center
Thu 02:34:10 PM 33.6228 -81.5681 68° East 292 336 17,800 -750 Descending Jacksonville Center
Thu 02:35:10 PM 33.6511 -81.4753 70° East 292 336 16,600 -1,200 Descending Jacksonville Center
Thu 02:36:10 PM 33.6833 -81.3825 67° East 292 336 15,400 -1,150 Descending Jacksonville Center
Thu 02:37:10 PM 33.7075 -81.2997 71° East 292 336 14,300 -1,050 Descending Jacksonville Center
Thu 02:38:10 PM 33.7375 -81.2067 69° East 292 336 13,300 -1,000 Descending Jacksonville Center
Thu 02:39:10 PM 33.7675 -81.1189 68° East 287 330 12,300 -1,050 Descending Jacksonville Center
Thu 02:40:10 PM 33.7914 -81.0283 72° East 287 330 11,200 -1,150 Descending Jacksonville Center
Thu 02:41:10 PM 33.8192 -80.9403 69° East 287 330 10,000 -1,150 Descending Jacksonville Center
Thu 02:42:10 PM 33.8472 -80.8597 67° East 280 322 8,900 -1,150 Descending Jacksonville Center
Thu 02:43:10 PM 33.8833 -80.7811 61° Northeast 268 308 7,700 -1,200 Descending Jacksonville Center
Thu 02:44:10 PM 33.9217 -80.7028 59° Northeast 262 302 6,500 -1,200 Descending Jacksonville Center
Thu 02:45:10 PM 33.9517 -80.6294 64° Northeast 251 289 5,300 -1,200 Descending Jacksonville Center

Login

Don't have an account? Register now (free) for customized features, flight alerts, and more!